createdAt,value
2022-10-06T00:01:19.688Z,100817.25
2022-10-06T00:03:48.630Z,100815.92
2022-10-06T00:06:18.554Z,100817.86
2022-10-06T00:08:47.558Z,100817.70
2022-10-06T00:11:17.609Z,100810.27
2022-10-06T00:13:46.075Z,100810.90
2022-10-06T00:16:23.762Z,100810.89
2022-10-06T00:18:52.315Z,100807.15
2022-10-06T00:21:20.662Z,100809.07
2022-10-06T00:23:49.071Z,100803.80
2022-10-06T00:26:17.705Z,100800.42
2022-10-06T00:28:50.362Z,100801.64
2022-10-06T00:31:20.013Z,100813.92
2022-10-06T00:33:50.011Z,100815.77
2022-10-06T00:36:19.013Z,100806.23
2022-10-06T00:38:47.909Z,100800.42
2022-10-06T00:41:18.486Z,100796.59
2022-10-06T00:43:53.917Z,100790.66
2022-10-06T00:46:46.637Z,100787.53
2022-10-06T00:49:26.430Z,100788.49
2022-10-06T00:52:06.038Z,100792.86
2022-10-06T00:54:36.456Z,100777.48
2022-10-06T00:57:06.869Z,100772.13
2022-10-06T00:59:37.401Z,100774.52
2022-10-06T01:02:28.968Z,100774.77
2022-10-06T01:05:01.050Z,100762.93
2022-10-06T01:07:31.747Z,100760.60
2022-10-06T01:10:00.236Z,100761.92
2022-10-06T01:12:31.938Z,100757.94
2022-10-06T01:15:00.722Z,100749.82
2022-10-06T01:17:42.525Z,100747.24
2022-10-06T01:20:15.851Z,100751.69
2022-10-06T01:22:50.697Z,100749.25
2022-10-06T01:25:20.755Z,100746.42
2022-10-06T01:27:54.090Z,100746.14
2022-10-06T01:30:36.666Z,100751.16
2022-10-06T01:33:05.906Z,100751.09
2022-10-06T01:35:35.117Z,100749.25
2022-10-06T01:38:04.593Z,100746.98
2022-10-06T01:40:32.976Z,100749.01
2022-10-06T01:43:03.081Z,100753.12
2022-10-06T01:45:31.803Z,100755.41
2022-10-06T01:48:00.693Z,100754.70
2022-10-06T01:50:29.276Z,100755.62
2022-10-06T01:52:57.859Z,100755.44
2022-10-06T01:55:26.955Z,100752.88
2022-10-06T01:57:56.866Z,100750.87
2022-10-06T02:00:25.961Z,100745.15
2022-10-06T02:02:55.416Z,100737.48
2022-10-06T02:05:24.234Z,100738.92
2022-10-06T02:07:53.945Z,100739.34
2022-10-06T02:10:22.851Z,100746.10
2022-10-06T02:12:54.997Z,100746.77
2022-10-06T02:15:25.294Z,100744.42
2022-10-06T02:17:54.847Z,100747.70
2022-10-06T02:20:27.925Z,100748.04
2022-10-06T02:22:56.316Z,100742.32
2022-10-06T02:25:24.898Z,100742.15
2022-10-06T02:27:55.597Z,100740.09
2022-10-06T02:30:24.111Z,100737.18
2022-10-06T02:32:53.642Z,100740.35
2022-10-06T02:35:23.109Z,100741.17
2022-10-06T02:37:51.806Z,100740.62
2022-10-06T02:40:20.993Z,100742.04
2022-10-06T02:42:49.587Z,100742.16
2022-10-06T02:45:20.115Z,100739.23
2022-10-06T02:47:48.701Z,100739.86
2022-10-06T02:50:17.375Z,100743.17
2022-10-06T02:52:46.973Z,100746.98
2022-10-06T02:55:15.606Z,100745.55
2022-10-06T02:57:44.247Z,100744.17
2022-10-06T03:00:15.362Z,100742.41
2022-10-06T03:02:44.075Z,100739.14
2022-10-06T03:05:12.674Z,100737.12
2022-10-06T03:07:41.153Z,100728.57
2022-10-06T03:10:10.043Z,100729.58
2022-10-06T03:12:38.809Z,100726.73
2022-10-06T03:15:08.909Z,100725.20
2022-10-06T03:17:37.329Z,100725.27
2022-10-06T03:20:08.179Z,100726.77
2022-10-06T03:22:36.528Z,100729.15
2022-10-06T03:25:05.152Z,100735.03
2022-10-06T03:27:34.120Z,100735.65
2022-10-06T03:30:06.736Z,100736.23
2022-10-06T03:32:35.688Z,100739.32
2022-10-06T03:35:04.858Z,100738.39
2022-10-06T03:37:33.880Z,100731.41
2022-10-06T03:40:02.667Z,100731.45
2022-10-06T03:42:32.475Z,100737.31
2022-10-06T03:45:00.962Z,100729.77
2022-10-06T03:47:32.489Z,100736.71
2022-10-06T03:50:01.509Z,100739.28
2022-10-06T03:52:30.498Z,100738.59
2022-10-06T03:54:58.918Z,100744.39
2022-10-06T03:57:27.450Z,100741.61
2022-10-06T03:59:59.979Z,100747.55
2022-10-06T04:02:28.728Z,100747.66
2022-10-06T04:04:57.309Z,100754.08
2022-10-06T04:07:25.917Z,100757.88
2022-10-06T04:09:54.427Z,100759.09
2022-10-06T04:12:23.537Z,100756.42
2022-10-06T04:14:55.354Z,100755.98
2022-10-06T04:17:26.409Z,100756.61
2022-10-06T04:19:54.766Z,100757.65
2022-10-06T04:22:23.180Z,100753.39
2022-10-06T04:24:51.661Z,100749.97
2022-10-06T04:27:29.648Z,100746.61
2022-10-06T04:30:13.555Z,100751.14
2022-10-06T04:32:42.477Z,100751.80
2022-10-06T04:35:10.932Z,100755.13
2022-10-06T04:37:39.645Z,100751.73
2022-10-06T04:40:08.987Z,100756.37
2022-10-06T04:42:38.179Z,100760.06
2022-10-06T04:45:10.769Z,100768.98
2022-10-06T04:47:40.749Z,100771.05
2022-10-06T04:50:10.414Z,100776.14
2022-10-06T04:52:41.259Z,100777.05
2022-10-06T04:55:11.326Z,100785.73
2022-10-06T04:57:39.916Z,100785.77
2022-10-06T05:00:22.950Z,100784.08
2022-10-06T05:02:56.136Z,100785.02
2022-10-06T05:05:24.837Z,100786.56
2022-10-06T05:07:54.782Z,100787.31
2022-10-06T05:10:23.241Z,100785.33
2022-10-06T05:12:51.750Z,100785.73
2022-10-06T05:15:20.473Z,100785.02
2022-10-06T05:17:49.040Z,100779.84
2022-10-06T05:20:18.146Z,100776.50
2022-10-06T05:22:47.272Z,100772.27
2022-10-06T05:25:15.900Z,100780.55
2022-10-06T05:27:44.483Z,100780.59
2022-10-06T05:30:12.956Z,100787.29
2022-10-06T05:32:41.290Z,100792.73
2022-10-06T05:35:09.736Z,100790.41
2022-10-06T05:37:38.220Z,100793.76
2022-10-06T05:40:07.669Z,100796.73
2022-10-06T05:42:36.035Z,100801.95
2022-10-06T05:45:04.952Z,100802.96
2022-10-06T05:47:34.519Z,100798.89
2022-10-06T05:50:03.908Z,100802.14
2022-10-06T05:52:32.270Z,100811.08
2022-10-06T05:55:00.669Z,100808.66
2022-10-06T05:57:29.367Z,100816.27
2022-10-06T05:59:58.104Z,100817.48
2022-10-06T06:02:27.718Z,100815.30
2022-10-06T06:04:56.283Z,100814.50
2022-10-06T06:07:24.634Z,100818.68
2022-10-06T06:09:54.128Z,100820.36
2022-10-06T06:12:23.408Z,100821.98
2022-10-06T06:15:14.539Z,100820.38
2022-10-06T06:17:50.826Z,100815.90
2022-10-06T06:20:20.157Z,100818.44
2022-10-06T06:22:53.738Z,100821.41
2022-10-06T06:25:24.852Z,100833.54
2022-10-06T06:27:56.195Z,100837.77
2022-10-06T06:30:25.587Z,100842.48
2022-10-06T06:32:59.774Z,100843.48
2022-10-06T06:35:28.444Z,100843.11
2022-10-06T06:37:59.664Z,100848.20
2022-10-06T06:40:28.693Z,100847.84
2022-10-06T06:42:57.568Z,100850.97
2022-10-06T06:46:16.805Z,100848.43
2022-10-06T06:49:04.550Z,100848.22
2022-10-06T06:51:40.537Z,100841.35
2022-10-06T06:54:11.352Z,100838.61
2022-10-06T06:56:43.040Z,100843.77
2022-10-06T06:59:13.656Z,100845.23
2022-10-06T07:01:49.426Z,100843.09
2022-10-06T07:04:21.609Z,100845.83
2022-10-06T07:06:59.053Z,100842.99
2022-10-06T07:09:30.600Z,100837.98
2022-10-06T07:12:11.661Z,100838.60
2022-10-06T07:15:03.842Z,100836.23
2022-10-06T07:17:54.682Z,100840.37
2022-10-06T07:20:42.227Z,100838.19
2022-10-06T07:23:36.301Z,100842.27
2022-10-06T07:26:07.424Z,100846.20
2022-10-06T07:28:36.080Z,100849.56
2022-10-06T07:31:05.306Z,100851.61
2022-10-06T07:33:34.409Z,100851.19
2022-10-06T07:36:05.941Z,100852.42
2022-10-06T07:38:44.033Z,100847.30
2022-10-06T07:41:19.480Z,100843.30
2022-10-06T07:43:57.276Z,100845.56
2022-10-06T07:46:28.204Z,100841.19
2022-10-06T07:49:04.340Z,100839.79
2022-10-06T07:51:32.887Z,100846.13
2022-10-06T07:54:03.035Z,100847.67
2022-10-06T07:57:20.666Z,100845.48
2022-10-06T07:59:48.988Z,100841.90
2022-10-06T08:02:20.075Z,100843.30
2022-10-06T08:04:48.572Z,100835.58
2022-10-06T08:07:17.054Z,100837.36
2022-10-06T08:09:45.460Z,100831.80
2022-10-06T08:12:32.004Z,100830.07
2022-10-06T08:15:07.039Z,100837.82
2022-10-06T08:17:36.842Z,100834.42
2022-10-06T08:20:09.337Z,100832.50
2022-10-06T08:22:38.995Z,100838.14
2022-10-06T08:25:10.298Z,100833.86
2022-10-06T08:27:40.581Z,100839.60
2022-10-06T08:30:11.539Z,100839.09
2022-10-06T08:32:43.011Z,100841.67
2022-10-06T08:35:11.758Z,100838.48
2022-10-06T08:37:40.151Z,100839.10
2022-10-06T08:40:14.889Z,100832.14
2022-10-06T08:42:48.983Z,100836.04
2022-10-06T08:45:38.566Z,100831.91
2022-10-06T08:48:20.341Z,100829.62
2022-10-06T08:51:06.771Z,100829.95
2022-10-06T08:54:04.005Z,100828.20
2022-10-06T08:56:54.704Z,100826.88
2022-10-06T08:59:23.358Z,100831.89
2022-10-06T09:01:54.993Z,100828.20
2022-10-06T09:04:28.908Z,100825.31
2022-10-06T09:07:06.590Z,100818.41
2022-10-06T09:10:11.005Z,100822.44
2022-10-06T09:12:55.130Z,100828.89
2022-10-06T09:15:35.258Z,100826.17
2022-10-06T09:19:06.651Z,100830.36
2022-10-06T09:21:42.207Z,100831.75
2022-10-06T09:24:33.465Z,100825.21
2022-10-06T09:27:16.861Z,100834.45
2022-10-06T09:29:48.813Z,100828.64
2022-10-06T09:32:19.982Z,100832.59
2022-10-06T09:35:02.924Z,100832.48
2022-10-06T09:38:09.007Z,100834.73
2022-10-06T09:40:39.563Z,100835.90
2022-10-06T09:43:34.260Z,100831.98
2022-10-06T09:46:28.640Z,100832.91
2022-10-06T09:49:07.514Z,100833.73
2022-10-06T09:51:38.261Z,100828.12
2022-10-06T09:54:17.135Z,100821.55
2022-10-06T09:56:47.403Z,100824.66
2022-10-06T09:59:40.335Z,100824.27
2022-10-06T10:02:41.128Z,100821.08
2022-10-06T10:05:23.076Z,100817.98
2022-10-06T10:08:22.494Z,100819.24
2022-10-06T10:11:30.146Z,100816.80
2022-10-06T10:13:59.617Z,100814.73
2022-10-06T10:16:34.984Z,100809.66
2022-10-06T10:19:05.914Z,100809.71
2022-10-06T10:21:35.606Z,100811.16
2022-10-06T10:24:20.169Z,100809.46
2022-10-06T10:27:05.328Z,100812.11
2022-10-06T10:30:11.849Z,100803.95
2022-10-06T10:33:09.311Z,100803.37
2022-10-06T10:35:47.184Z,100801.73
2022-10-06T10:38:20.807Z,100803.09
2022-10-06T10:41:10.160Z,100801.35
2022-10-06T10:44:09.958Z,100795.80
2022-10-06T10:47:08.566Z,100790.39
2022-10-06T10:49:39.542Z,100791.85
2022-10-06T10:52:20.915Z,100792.32
2022-10-06T10:55:29.345Z,100788.23
2022-10-06T10:58:07.995Z,100795.55
2022-10-06T11:00:42.738Z,100792.27
2022-10-06T11:03:17.487Z,100794.27
2022-10-06T11:06:18.226Z,100787.77
2022-10-06T11:09:32.737Z,100785.48
2022-10-06T11:12:29.447Z,100787.67
2022-10-06T11:15:19.218Z,100782.69
2022-10-06T11:18:01.455Z,100780.85
2022-10-06T11:20:49.192Z,100777.17
2022-10-06T11:23:44.520Z,100779.71
2022-10-06T11:26:45.261Z,100773.11
2022-10-06T11:29:51.394Z,100776.61
2022-10-06T11:32:26.691Z,100777.60
2022-10-06T11:34:55.292Z,100772.73
2022-10-06T11:37:49.416Z,100771.66
2022-10-06T11:40:56.324Z,100768.37
2022-10-06T11:44:04.744Z,100767.54
2022-10-06T11:46:49.526Z,100762.70
2022-10-06T11:49:29.852Z,100759.64
2022-10-06T11:52:08.315Z,100763.05
2022-10-06T11:54:40.006Z,100754.45
2022-10-06T11:57:29.329Z,100761.66
2022-10-06T12:00:05.285Z,100760.44
2022-10-06T12:02:40.888Z,100763.24
2022-10-06T12:05:54.201Z,100758.56
2022-10-06T12:08:03.859Z,100760.63
2022-10-06T12:10:35.625Z,100755.73
2022-10-06T12:14:01.485Z,100753.09
2022-10-06T12:19:42.425Z,100749.15
2022-10-06T12:22:25.828Z,100745.80
2022-10-06T12:25:17.657Z,100742.04
2022-10-06T12:28:21.151Z,100744.60
2022-10-06T12:31:25.442Z,100746.34
2022-10-06T12:33:54.093Z,100740.66
2022-10-06T12:36:31.730Z,100737.22
2022-10-06T12:39:29.569Z,100736.88
2022-10-06T12:42:17.306Z,100737.78
2022-10-06T12:44:50.155Z,100733.11
2022-10-06T12:47:33.956Z,100743.44
2022-10-06T12:50:27.294Z,100742.05
2022-10-06T12:53:14.082Z,100743.32
2022-10-06T12:55:51.595Z,100742.02
2022-10-06T12:58:32.556Z,100745.35
2022-10-06T13:01:04.059Z,100738.75
2022-10-06T13:03:32.580Z,100740.58
2022-10-06T13:06:04.058Z,100740.76
2022-10-06T13:08:41.514Z,100741.02
2022-10-06T13:11:14.080Z,100743.48
2022-10-06T13:14:13.034Z,100745.19
2022-10-06T13:16:47.506Z,100746.58
2022-10-06T13:19:36.049Z,100741.25
2022-10-06T13:22:04.898Z,100737.51
2022-10-06T13:24:33.322Z,100737.30
2022-10-06T13:27:03.134Z,100734.15
2022-10-06T13:29:32.197Z,100734.36
2022-10-06T13:32:02.608Z,100733.30
2022-10-06T13:34:35.021Z,100737.67
2022-10-06T13:37:03.659Z,100729.28
2022-10-06T13:39:32.291Z,100732.16
2022-10-06T13:42:20.494Z,100732.23
2022-10-06T13:45:02.134Z,100735.58
2022-10-06T13:47:30.874Z,100738.28
2022-10-06T13:50:06.596Z,100735.48
2022-10-06T13:52:47.122Z,100733.19
2022-10-06T13:55:18.481Z,100735.95
2022-10-06T13:58:08.574Z,100735.70
2022-10-06T14:00:51.692Z,100738.47
2022-10-06T14:03:28.639Z,100740.79
2022-10-06T14:06:21.492Z,100737.18
2022-10-06T14:08:57.586Z,100738.94
2022-10-06T14:11:30.006Z,100736.59
2022-10-06T14:14:03.159Z,100739.11
2022-10-06T14:16:32.127Z,100739.92
2022-10-06T14:19:06.131Z,100743.04
2022-10-06T14:21:42.002Z,100741.17
2022-10-06T14:24:16.306Z,100744.48
2022-10-06T14:26:46.513Z,100747.20
2022-10-06T14:29:14.862Z,100748.30
2022-10-06T14:31:44.359Z,100748.73
2022-10-06T14:34:15.592Z,100750.80
2022-10-06T14:36:51.561Z,100752.14
2022-10-06T14:39:20.347Z,100752.54
2022-10-06T14:41:48.784Z,100751.27
2022-10-06T14:44:17.576Z,100754.14
2022-10-06T14:46:48.915Z,100757.92
2022-10-06T14:49:17.798Z,100756.58
2022-10-06T14:51:46.689Z,100756.11
2022-10-06T14:54:15.441Z,100758.33
2022-10-06T14:56:44.206Z,100764.19
2022-10-06T14:59:17.348Z,100766.67
2022-10-06T15:01:47.511Z,100762.57
2022-10-06T15:04:24.434Z,100762.14
2022-10-06T15:07:11.403Z,100762.96
2022-10-06T15:09:39.918Z,100770.42
2022-10-06T15:12:08.473Z,100773.30
2022-10-06T15:14:40.050Z,100775.39
2022-10-06T15:17:08.971Z,100776.63
2022-10-06T15:19:37.516Z,100783.95
2022-10-06T15:22:09.056Z,100780.61
2022-10-06T15:24:37.394Z,100782.44
2022-10-06T15:27:25.286Z,100788.02
2022-10-06T15:29:54.230Z,100792.88
2022-10-06T15:32:22.720Z,100790.52
2022-10-06T15:34:52.417Z,100784.90
2022-10-06T15:37:20.785Z,100786.95
2022-10-06T15:39:49.087Z,100791.52
2022-10-06T15:42:20.246Z,100790.45
2022-10-06T15:44:50.098Z,100793.98
2022-10-06T15:47:18.426Z,100793.34
2022-10-06T15:49:47.226Z,100797.14
2022-10-06T15:52:17.743Z,100799.87
2022-10-06T15:54:48.261Z,100805.67
2022-10-06T15:57:20.644Z,100809.08
2022-10-06T15:59:49.626Z,100812.64
2022-10-06T16:02:20.275Z,100815.08
2022-10-06T16:05:40.124Z,100817.27
2022-10-06T16:08:08.446Z,100825.13
2022-10-06T16:10:36.767Z,100829.22
2022-10-06T16:13:05.876Z,100827.73
2022-10-06T16:15:34.340Z,100829.39
2022-10-06T16:18:02.802Z,100834.08
2022-10-06T16:20:31.321Z,100834.01
2022-10-06T16:22:59.798Z,100839.17
2022-10-06T16:25:28.182Z,100836.14
2022-10-06T16:27:56.583Z,100840.61
2022-10-06T16:30:24.870Z,100840.39
2022-10-06T16:32:53.293Z,100842.59
2022-10-06T16:35:21.693Z,100844.55
2022-10-06T16:37:50.281Z,100849.05
2022-10-06T16:40:18.652Z,100847.86
2022-10-06T16:42:47.025Z,100849.27
2022-10-06T16:45:15.807Z,100851.56
2022-10-06T16:47:44.388Z,100850.16
2022-10-06T16:50:12.872Z,100847.95
2022-10-06T16:52:41.526Z,100844.29
2022-10-06T16:55:10.038Z,100848.20
2022-10-06T16:57:38.432Z,100848.88
2022-10-06T17:00:07.555Z,100849.05
2022-10-06T17:02:36.054Z,100854.22
2022-10-06T17:05:05.710Z,100855.46
2022-10-06T17:07:34.357Z,100855.00
2022-10-06T17:10:19.495Z,100854.77
2022-10-06T17:12:49.193Z,100855.60
2022-10-06T17:15:17.536Z,100859.27
2022-10-06T17:17:46.221Z,100859.55
2022-10-06T17:20:16.044Z,100859.80
2022-10-06T17:22:44.639Z,100864.64
2022-10-06T17:25:14.348Z,100862.23
2022-10-06T17:27:43.856Z,100862.81
2022-10-06T17:30:12.991Z,100862.81
2022-10-06T17:32:41.659Z,100866.23
2022-10-06T17:35:10.324Z,100868.70
2022-10-06T17:37:40.510Z,100870.58
2022-10-06T17:40:09.314Z,100868.32
2022-10-06T17:42:37.891Z,100868.70
2022-10-06T17:45:06.753Z,100870.14
2022-10-06T17:47:37.858Z,100873.79
2022-10-06T17:50:14.357Z,100871.06
2022-10-06T17:52:43.107Z,100879.11
2022-10-06T17:55:12.732Z,100885.08
2022-10-06T17:57:41.085Z,100885.45
2022-10-06T18:00:11.204Z,100885.08
2022-10-06T18:02:42.329Z,100888.48
2022-10-06T18:05:11.037Z,100891.97
2022-10-06T18:07:40.406Z,100895.27
2022-10-06T18:10:29.069Z,100894.21
2022-10-06T18:12:58.187Z,100900.15
2022-10-06T18:15:27.301Z,100901.20
2022-10-06T18:17:56.990Z,100903.58
2022-10-06T18:20:30.199Z,100907.71
2022-10-06T18:23:01.513Z,100908.78
2022-10-06T18:25:31.045Z,100908.51
2022-10-06T18:27:59.629Z,100911.83
2022-10-06T18:30:29.395Z,100912.67
2022-10-06T18:36:12.328Z,100922.20
2022-10-06T18:38:45.537Z,100922.23
2022-10-06T18:41:19.571Z,100924.73
2022-10-06T18:43:48.741Z,100923.11
2022-10-06T18:46:37.009Z,100924.38
2022-10-06T18:49:12.581Z,100933.13
2022-10-06T18:51:49.072Z,100936.23
2022-10-06T18:54:22.442Z,100940.30
2022-10-06T18:56:53.447Z,100943.15
2022-10-06T18:59:28.055Z,100948.71
2022-10-06T19:01:56.983Z,100946.16
2022-10-06T19:04:25.870Z,100946.52
2022-10-06T19:06:55.645Z,100950.30
2022-10-06T19:09:25.594Z,100950.23
2022-10-06T19:11:56.839Z,100953.02
2022-10-06T19:14:30.033Z,100958.73
2022-10-06T19:17:01.408Z,100961.67
2022-10-06T19:19:31.600Z,100966.90
2022-10-06T19:22:02.846Z,100969.77
2022-10-06T19:24:36.434Z,100967.84
2022-10-06T19:27:12.306Z,100970.64
2022-10-06T19:29:50.857Z,100975.36
2022-10-06T19:32:24.041Z,100975.45
2022-10-06T19:34:52.673Z,100978.23
2022-10-06T19:37:21.071Z,100976.55
2022-10-06T19:39:50.354Z,100976.25
2022-10-06T19:42:38.512Z,100981.02
2022-10-06T19:45:08.721Z,100983.96
2022-10-06T19:47:37.218Z,100986.46
2022-10-06T19:50:11.622Z,100983.45
2022-10-06T19:52:42.130Z,100987.50
2022-10-06T19:55:10.439Z,100986.24
2022-10-06T19:57:38.818Z,100989.66
2022-10-06T20:00:08.987Z,100991.16
2022-10-06T20:02:44.387Z,100995.79
2022-10-06T20:05:14.304Z,100997.89
2022-10-06T20:07:45.186Z,101001.27
2022-10-06T20:10:14.820Z,100997.27
2022-10-06T20:12:43.425Z,101000.30
2022-10-06T20:15:13.133Z,100999.18
2022-10-06T20:17:42.798Z,100997.30
2022-10-06T20:20:11.532Z,101001.40
2022-10-06T20:22:40.214Z,100998.54
2022-10-06T20:25:08.986Z,101002.45
2022-10-06T20:27:37.380Z,100995.08
2022-10-06T20:30:07.465Z,101003.51
2022-10-06T20:32:35.860Z,101003.45
2022-10-06T20:35:05.281Z,101005.98
2022-10-06T20:37:33.642Z,101009.42
2022-10-06T20:40:20.652Z,101008.95
2022-10-06T20:42:54.970Z,101009.95
2022-10-06T20:45:23.765Z,101005.41
2022-10-06T20:47:52.245Z,101007.77
2022-10-06T20:50:21.149Z,101010.46
2022-10-06T20:52:49.717Z,101007.59
2022-10-06T20:55:18.319Z,101014.36
2022-10-06T20:57:48.910Z,101011.20
2022-10-06T21:00:18.005Z,101014.93
2022-10-06T21:02:46.602Z,101020.51
2022-10-06T21:05:15.106Z,101020.39
2022-10-06T21:07:44.122Z,101024.47
2022-10-06T21:10:12.632Z,101028.38
2022-10-06T21:12:40.953Z,101033.33
2022-10-06T21:15:10.030Z,101033.16
2022-10-06T21:17:39.564Z,101033.83
2022-10-06T21:20:08.077Z,101035.92
2022-10-06T21:22:36.377Z,101032.38
2022-10-06T21:25:05.511Z,101035.45
2022-10-06T21:27:34.072Z,101031.42
2022-10-06T21:30:03.599Z,101030.36
2022-10-06T21:32:32.880Z,101031.34
2022-10-06T21:35:01.197Z,101031.54
2022-10-06T21:37:29.534Z,101035.01
2022-10-06T21:40:02.141Z,101036.77
2022-10-06T21:42:31.692Z,101030.11
2022-10-06T21:45:00.096Z,101034.77
2022-10-06T21:47:28.505Z,101035.58
2022-10-06T21:49:56.948Z,101037.45
2022-10-06T21:52:25.333Z,101035.55
2022-10-06T21:54:53.703Z,101035.39
2022-10-06T21:57:22.212Z,101037.72
2022-10-06T21:59:50.695Z,101040.70
2022-10-06T22:02:19.097Z,101039.13
2022-10-06T22:04:47.428Z,101040.44
2022-10-06T22:07:16.056Z,101039.80
2022-10-06T22:09:44.309Z,101036.69
2022-10-06T22:12:12.790Z,101039.25
2022-10-06T22:14:41.167Z,101042.32
2022-10-06T22:17:09.623Z,101042.16
2022-10-06T22:19:37.921Z,101043.48
2022-10-06T22:22:06.340Z,101040.30
2022-10-06T22:24:34.860Z,101043.25
2022-10-06T22:27:04.389Z,101045.23
2022-10-06T22:29:32.844Z,101045.95
2022-10-06T22:32:01.283Z,101047.45
2022-10-06T22:34:29.852Z,101045.13
2022-10-06T22:36:58.621Z,101042.16
2022-10-06T22:39:26.836Z,101041.71
2022-10-06T22:41:55.174Z,101044.09
2022-10-06T22:44:23.614Z,101049.23
2022-10-06T22:46:52.107Z,101049.23
2022-10-06T22:49:20.728Z,101053.00
2022-10-06T22:51:48.994Z,101054.77
2022-10-06T22:54:19.306Z,101053.81
2022-10-06T22:56:47.667Z,101055.34
2022-10-06T22:59:16.219Z,101059.75
2022-10-06T23:01:44.657Z,101056.83
2022-10-06T23:04:13.319Z,101061.60
2022-10-06T23:06:41.620Z,101065.52
2022-10-06T23:09:10.072Z,101060.37
2022-10-06T23:11:38.402Z,101067.02
2022-10-06T23:14:06.970Z,101064.39
2022-10-06T23:16:35.428Z,101064.14
2022-10-06T23:19:03.919Z,101066.60
2022-10-06T23:21:32.515Z,101066.75
2022-10-06T23:24:01.467Z,101066.58
2022-10-06T23:26:31.995Z,101063.35
2022-10-06T23:29:01.602Z,101061.69
2022-10-06T23:31:30.859Z,101059.70
2022-10-06T23:33:59.313Z,101060.73
2022-10-06T23:36:28.808Z,101062.27
2022-10-06T23:38:57.295Z,101061.47
2022-10-06T23:41:25.847Z,101066.48
2022-10-06T23:43:54.637Z,101063.33
2022-10-06T23:46:23.020Z,101058.95
2022-10-06T23:48:51.399Z,101058.81
2022-10-06T23:51:20.083Z,101059.98
2022-10-06T23:53:48.672Z,101058.27
2022-10-06T23:56:19.125Z,101056.05
2022-10-06T23:58:47.983Z,101055.45
